HRYR/KGL METAR and TAF weather

Enter ICAO airport designator
Station Type Date Time Source
HRYR METAR 2020/05/30 05:00 UTC NOAA

HRYR 300500Z 33005KT 9999 FEW026 SCT300 19/16 Q1023 NOSIG


Station Type Date Time Source
HRYR Decoded METAR 2020/05/30 05:00 UTC NOAA

Kigali, Rwanda (HRYR) 01-58S 030-07E 1497M
May 30, 2020 - 01:00 AM EDT / 2020.05.30 0500 UTC
Wind: from the NNW (330 degrees) at 6 MPH (5 KT):0
Visibility: greater than 7 mile(s):0
Sky conditions: partly cloudy
Temperature: 66 F (19 C)
Dew Point: 60 F (16 C)
Relative Humidity: 82%
Pressure (altimeter): 30.21 in. Hg (1023 hPa)
ob: HRYR 300500Z 33005KT 9999 FEW026 SCT300 19/16 Q1023 NOSIG
cycle: 5

Station Type Date Time Source
HRYR TAF 2020/05/30 06:03 UTC NOAA

TAF TAF HRYR 300500Z 3006/3112 33003KT 9999 FEW026
FM300800 14008KT SCT025
TEMPO 3011/3015 20012KT FEW023CB SCT025
BECMG 3018/3021 32004KT FEW026
BECMG 3102/3105 00000KT
FM310800 33003KT SCT025

Example: see airport list